Time;durP1;ratioP1;P1;durP2;ratioP2;P2;SDS_P1;SDS_P2;PMS_P1;PMS_P2;Temp;Humidity;BMP_temperature;BMP_pressure;BME280_temperature;BME280_humidity;BME280_pressure;Samples;Min_cycle;Max_cycle;Signal;HPM_P1;HPM_P2
2023/07/02 00:03:56;;;;;;;1.70;1.40;;;;;18.30;95685.00;;;;8311768;28;20221;-68
2023/07/02 00:08:04;;;;;;;2.83;1.60;;;;;18.30;95680.00;;;;8313115;28;20198;-65
2023/07/02 00:12:11;;;;;;;4.45;1.67;;;;;18.40;95676.00;;;;8315002;28;20212;-65
2023/07/02 00:16:15;;;;;;;1.80;1.70;;;;;18.40;95674.00;;;;8322228;28;20713;-66
2023/07/02 00:20:20;;;;;;;1.55;1.55;;;;;18.40;95673.00;;;;8332329;28;20968;-65
2023/07/02 00:24:23;;;;;;;2.00;1.90;;;;;18.40;95674.00;;;;8328467;28;20221;-65
2023/07/02 00:28:27;;;;;;;3.42;1.85;;;;;18.50;95669.00;;;;8320714;28;20281;-67
2023/07/02 00:32:34;;;;;;;1.73;1.65;;;;;18.40;95668.00;;;;8342321;28;20211;-66
2023/07/02 00:36:41;;;;;;;1.80;1.70;;;;;18.40;95672.00;;;;8324115;28;20875;-65
2023/07/02 00:40:44;;;;;;;2.78;1.92;;;;;18.40;95677.00;;;;8343322;28;20559;-67
2023/07/02 00:44:48;;;;;;;2.47;2.00;;;;;18.40;95683.00;;;;8325367;28;20313;-66
2023/07/02 00:48:54;;;;;;;2.20;2.00;;;;;18.40;95675.00;;;;8323053;28;20201;-68
2023/07/02 00:52:57;;;;;;;2.75;2.10;;;;;18.40;95684.00;;;;8315505;28;20196;-65
2023/07/02 00:57:05;;;;;;;2.22;2.13;;;;;18.40;95684.00;;;;8325000;28;20203;-65
2023/07/02 01:01:09;;;;;;;5.40;2.40;;;;;18.40;95679.00;;;;8341146;28;20193;-68
2023/07/02 01:05:21;;;;;;;1.95;1.85;;;;;18.40;95673.00;;;;8318138;28;20330;-65
2023/07/02 01:09:26;;;;;;;9.90;2.30;;;;;18.30;95673.00;;;;8323457;28;20201;-65
2023/07/02 01:13:31;;;;;;;1.67;1.67;;;;;18.20;95673.00;;;;8336148;28;20300;-65
2023/07/02 01:17:41;;;;;;;2.80;2.13;;;;;18.10;95681.00;;;;8335359;28;20209;-67
2023/07/02 01:21:47;;;;;;;3.97;2.25;;;;;17.90;95673.00;;;;8337189;28;20204;-66
2023/07/02 01:25:53;;;;;;;2.05;1.95;;;;;17.80;95669.00;;;;8321258;28;20308;-67
2023/07/02 01:29:58;;;;;;;2.20;2.00;;;;;17.70;95685.00;;;;8330886;28;20236;-65
2023/07/02 01:34:02;;;;;;;3.10;2.40;;;;;17.60;95692.00;;;;8319113;28;20287;-67
2023/07/02 01:38:09;;;;;;;3.10;2.38;;;;;17.60;95697.00;;;;8350225;28;20553;-65
2023/07/02 01:42:15;;;;;;;2.70;2.25;;;;;17.70;95691.00;;;;8344050;28;20201;-64
2023/07/02 01:46:20;;;;;;;3.92;2.30;;;;;17.70;95696.00;;;;8328323;28;20222;-67
2023/07/02 01:50:27;;;;;;;4.57;2.60;;;;;17.70;95697.00;;;;8343920;28;20204;-69
2023/07/02 01:54:34;;;;;;;4.35;2.60;;;;;17.70;95695.00;;;;8314860;28;20200;-65
2023/07/02 01:58:37;;;;;;;3.20;2.30;;;;;17.70;95695.00;;;;8342847;28;20212;-65
2023/07/02 02:02:40;;;;;;;2.42;2.33;;;;;17.80;95700.00;;;;8335608;28;20311;-67
2023/07/02 02:06:46;;;;;;;2.95;2.47;;;;;17.80;95706.00;;;;8349914;28;20228;-65
2023/07/02 02:10:50;;;;;;;2.78;2.53;;;;;17.90;95710.00;;;;8347111;28;20304;-64
2023/07/02 02:14:55;;;;;;;2.65;2.45;;;;;17.90;95697.00;;;;8327877;28;20239;-65
2023/07/02 02:18:58;;;;;;;2.60;2.40;;;;;17.90;95694.00;;;;8352216;28;20228;-65
2023/07/02 02:23:02;;;;;;;2.88;2.67;;;;;18.00;95701.00;;;;8347892;28;20288;-65
2023/07/02 02:27:07;;;;;;;4.30;2.85;;;;;18.00;95693.00;;;;8326763;28;20568;-65
2023/07/02 02:31:12;;;;;;;3.75;2.55;;;;;18.00;95702.00;;;;8345216;28;20189;-65
2023/07/02 02:35:20;;;;;;;4.05;2.92;;;;;18.10;95695.00;;;;8344701;28;20243;-66
2023/07/02 02:39:26;;;;;;;3.08;2.22;;;;;18.20;95693.00;;;;8344264;28;20531;-65
2023/07/02 02:43:35;;;;;;;3.30;2.38;;;;;18.30;95692.00;;;;8336873;28;20197;-65
2023/07/02 02:47:41;;;;;;;2.95;2.53;;;;;18.40;95700.00;;;;8333745;28;20801;-65
2023/07/02 02:51:45;;;;;;;3.10;2.33;;;;;18.40;95696.00;;;;8335256;28;20197;-64
2023/07/02 02:55:48;;;;;;;3.10;2.28;;;;;18.40;95700.00;;;;8345003;28;20280;-66
2023/07/02 02:59:53;;;;;;;3.88;2.55;;;;;18.40;95695.00;;;;8337772;28;20775;-64
2023/07/02 03:04:02;;;;;;;4.25;2.67;;;;;18.40;95693.00;;;;8332459;23;20255;-66
2023/07/02 03:08:06;;;;;;;6.07;2.80;;;;;18.30;95689.00;;;;8289205;28;20206;-65
2023/07/02 03:12:12;;;;;;;5.22;2.85;;;;;18.30;95693.00;;;;8312230;28;20201;-64
2023/07/02 03:16:16;;;;;;;2.70;2.50;;;;;18.20;95696.00;;;;8319921;28;20284;-64
2023/07/02 03:20:20;;;;;;;7.65;2.75;;;;;18.10;95706.00;;;;8320799;28;20206;-65
2023/07/02 03:24:25;;;;;;;6.75;3.00;;;;;18.00;95705.00;;;;8320880;28;20955;-64
2023/07/02 03:28:33;;;;;;;3.28;2.78;;;;;17.80;95716.00;;;;8309894;28;20243;-66
2023/07/02 03:32:39;;;;;;;2.88;2.67;;;;;17.80;95717.00;;;;8319355;28;20202;-65
2023/07/02 03:36:45;;;;;;;4.53;3.03;;;;;17.70;95715.00;;;;8319698;28;20201;-65
2023/07/02 03:40:48;;;;;;;3.10;2.83;;;;;17.70;95716.00;;;;8321044;28;20201;-66
2023/07/02 03:44:53;;;;;;;3.25;2.83;;;;;17.60;95710.00;;;;8320126;28;20324;-66
2023/07/02 03:48:57;;;;;;;3.35;2.78;;;;;17.50;95710.00;;;;8321529;28;20208;-64
2023/07/02 03:53:00;;;;;;;4.70;3.17;;;;;17.50;95728.00;;;;8319513;28;20233;-65
2023/07/02 03:57:04;;;;;;;3.10;2.83;;;;;17.50;95731.00;;;;8321217;28;20233;-65
2023/07/02 04:01:12;;;;;;;5.22;3.00;;;;;17.40;95739.00;;;;8317299;28;20194;-65
2023/07/02 04:05:20;;;;;;;3.28;2.97;;;;;17.40;95742.00;;;;8318566;28;20225;-67
2023/07/02 04:09:23;;;;;;;5.38;2.70;;;;;17.60;95750.00;;;;8320625;28;20221;-66
2023/07/02 04:13:29;;;;;;;3.20;2.90;;;;;17.80;95750.00;;;;8318653;28;20649;-65
2023/07/02 04:17:32;;;;;;;3.25;2.92;;;;;18.00;95757.00;;;;8320683;28;20669;-65
2023/07/02 04:21:40;;;;;;;5.35;3.00;;;;;18.30;95757.00;;;;8320155;28;20204;-65
2023/07/02 04:25:43;;;;;;;4.65;2.50;;;;;18.50;95772.00;;;;8321337;28;20758;-65
2023/07/02 04:30:11;;;;;;;3.88;2.95;;;;;18.80;95770.00;;;;8322044;28;20292;-64
2023/07/02 04:34:14;;;;;;;5.88;2.95;;;;;19.00;95773.00;;;;8320715;28;20301;-65
2023/07/02 04:38:21;;;;;;;4.72;2.80;;;;;19.20;95771.00;;;;8308401;28;20255;-65
2023/07/02 04:42:27;;;;;;;3.28;3.00;;;;;19.50;95772.00;;;;8325388;28;20515;-65
2023/07/02 04:46:32;;;;;;;4.18;3.13;;;;;19.50;95779.00;;;;8320363;28;20233;-65
2023/07/02 04:50:36;;;;;;;5.15;2.92;;;;;19.90;95779.00;;;;8321799;28;20201;-66
2023/07/02 04:54:45;;;;;;;4.78;3.00;;;;;20.30;95780.00;;;;8319823;28;20304;-66
2023/07/02 04:58:48;;;;;;;3.80;2.95;;;;;20.30;95783.00;;;;8321990;28;20279;-65
2023/07/02 05:02:51;;;;;;;3.33;3.03;;;;;19.90;95794.00;;;;8321118;28;21005;-65
2023/07/02 05:06:55;;;;;;;8.02;3.05;;;;;19.70;95789.00;;;;8323433;28;20260;-64
2023/07/02 05:10:59;;;;;;;3.08;2.58;;;;;19.80;95794.00;;;;8306916;28;20308;-64
2023/07/02 05:15:05;;;;;;;2.70;2.55;;;;;20.00;95805.00;;;;8325207;28;20276;-64
2023/07/02 05:19:10;;;;;;;2.65;2.45;;;;;20.00;95810.00;;;;8324973;28;20251;-64
2023/07/02 05:23:15;;;;;;;2.70;2.50;;;;;20.10;95826.00;;;;8324352;28;20263;-65
2023/07/02 05:27:23;;;;;;;2.67;2.47;;;;;20.40;95820.00;;;;8324371;28;20343;-64
2023/07/02 05:31:26;;;;;;;3.13;2.83;;;;;20.70;95819.00;;;;8323503;28;20304;-65
2023/07/02 05:35:29;;;;;;;3.17;2.83;;;;;20.70;95827.00;;;;8316401;28;20288;-66
2023/07/02 05:39:34;;;;;;;3.15;2.55;;;;;20.60;95833.00;;;;8307355;28;20203;-64
2023/07/02 05:43:39;;;;;;;2.92;2.33;;;;;20.50;95846.00;;;;8324921;28;20835;-64
2023/07/02 05:47:42;;;;;;;2.75;2.55;;;;;20.40;95828.00;;;;8311245;28;20713;-64
2023/07/02 05:51:46;;;;;;;5.07;2.90;;;;;20.40;95839.00;;;;8312392;28;20202;-63
2023/07/02 05:55:49;;;;;;;6.28;2.70;;;;;20.40;95841.00;;;;8322544;28;20288;-63
2023/07/02 05:59:53;;;;;;;3.65;2.70;;;;;20.30;95839.00;;;;8323946;28;20708;-64
2023/07/02 06:03:56;;;;;;;3.60;2.40;;;;;20.30;95852.00;;;;8316492;28;20305;-63
2023/07/02 06:08:00;;;;;;;5.05;2.45;;;;;20.30;95861.00;;;;8321427;28;20953;-64
2023/07/02 06:12:03;;;;;;;2.95;2.30;;;;;20.30;95865.00;;;;8322658;28;20232;-64
2023/07/02 06:16:10;;;;;;;11.43;2.90;;;;;20.30;95867.00;;;;8322638;28;20554;-64
2023/07/02 06:20:15;;;;;;;6.22;2.75;;;;;20.10;95875.00;;;;8337005;28;20196;-64
2023/07/02 06:24:21;;;;;;;2.78;2.15;;;;;20.20;95887.00;;;;8324818;28;20749;-64
2023/07/02 06:28:24;;;;;;;3.63;2.92;;;;;20.00;95882.00;;;;8313523;28;20254;-64
2023/07/02 06:32:29;;;;;;;3.08;2.50;;;;;19.90;95881.00;;;;8317636;28;20205;-64
2023/07/02 06:36:33;;;;;;;3.00;2.50;;;;;19.90;95893.00;;;;8313974;28;20832;-64
2023/07/02 06:40:36;;;;;;;5.25;2.63;;;;;19.90;95894.00;;;;8313723;28;20224;-63
2023/07/02 06:44:42;;;;;;;4.53;3.20;;;;;19.90;95887.00;;;;8318104;28;20551;-64
2023/07/02 06:48:46;;;;;;;8.13;3.65;;;;;19.70;95891.00;;;;8324757;28;20225;-62
2023/07/02 06:52:50;;;;;;;4.03;3.03;;;;;19.70;95896.00;;;;8328874;28;20233;-63
2023/07/02 06:56:53;;;;;;;4.70;3.67;;;;;19.80;95892.00;;;;8312662;28;20210;-62
2023/07/02 07:01:00;;;;;;;7.70;3.80;;;;;19.70;95901.00;;;;8320197;28;20285;-62
2023/07/02 07:05:05;;;;;;;6.70;4.18;;;;;19.70;95899.00;;;;8325511;28;20287;-63
2023/07/02 07:09:08;;;;;;;7.50;4.15;;;;;19.80;95889.00;;;;8319016;28;20315;-63
2023/07/02 07:13:12;;;;;;;8.32;4.72;;;;;20.00;95891.00;;;;8312462;28;20794;-62
2023/07/02 07:17:16;;;;;;;13.48;5.53;;;;;20.40;95895.00;;;;8320733;28;20289;-63
2023/07/02 07:21:24;;;;;;;12.43;5.65;;;;;20.60;95898.00;;;;8322060;28;20291;-63
2023/07/02 07:25:27;;;;;;;13.60;6.10;;;;;20.90;95886.00;;;;8317027;28;20229;-63
2023/07/02 07:29:34;;;;;;;12.65;7.30;;;;;21.20;95884.00;;;;8320106;28;20732;-62
2023/07/02 07:33:37;;;;;;;18.05;7.85;;;;;21.20;95893.00;;;;8311943;28;20723;-63
2023/07/02 07:37:51;;;;;;;19.20;8.60;;;;;21.30;95893.00;;;;8315213;28;20206;-64
2023/07/02 07:41:54;;;;;;;26.55;9.38;;;;;21.30;95890.00;;;;8315473;28;20198;-65
2023/07/02 07:46:00;;;;;;;21.55;8.80;;;;;21.60;95895.00;;;;8318965;28;20232;-64
2023/07/02 07:50:11;;;;;;;18.40;8.20;;;;;21.70;95892.00;;;;8313507;28;20296;-65
2023/07/02 07:54:20;;;;;;;18.90;8.93;;;;;22.30;95886.00;;;;8318833;28;20890;-65
2023/07/02 07:58:27;;;;;;;25.50;9.73;;;;;22.50;95890.00;;;;8319123;28;20206;-66
2023/07/02 08:02:37;;;;;;;17.60;8.27;;;;;22.90;95898.00;;;;8307623;28;20256;-64
2023/07/02 08:06:40;;;;;;;18.75;9.00;;;;;23.00;95894.00;;;;8301029;28;20226;-64
2023/07/02 08:10:48;;;;;;;19.20;8.60;;;;;23.10;95892.00;;;;8296656;28;20225;-64
2023/07/02 08:14:53;;;;;;;15.98;8.25;;;;;23.10;95898.00;;;;8310532;28;20209;-63
2023/07/02 08:18:58;;;;;;;19.70;8.82;;;;;22.80;95906.00;;;;8321885;28;20225;-64
2023/07/02 08:23:01;;;;;;;21.05;8.43;;;;;22.90;95900.00;;;;8318890;28;20316;-67
2023/07/02 08:27:07;;;;;;;19.90;8.30;;;;;22.90;95920.00;;;;8296701;28;20260;-63
2023/07/02 08:31:10;;;;;;;17.27;6.85;;;;;22.80;95903.00;;;;8294259;28;20949;-67
2023/07/02 08:35:13;;;;;;;15.82;8.25;;;;;22.80;95910.00;;;;8312557;28;20197;-67
2023/07/02 08:39:19;;;;;;;19.17;8.30;;;;;23.60;95910.00;;;;8289464;28;20198;-67
2023/07/02 08:43:26;;;;;;;18.00;7.30;;;;;24.70;95911.00;;;;8303747;28;20240;-67
2023/07/02 08:47:29;;;;;;;14.02;7.13;;;;;25.30;95894.00;;;;8303648;28;20221;-68
2023/07/02 08:51:40;;;;;;;17.67;7.43;;;;;25.50;95911.00;;;;8314292;28;20204;-70
2023/07/02 08:55:44;;;;;;;15.68;8.18;;;;;25.50;95923.00;;;;8307988;28;20205;-67
2023/07/02 08:59:59;;;;;;;13.35;7.18;;;;;25.50;95915.00;;;;8306165;28;20245;-67
2023/07/02 09:04:03;;;;;;;14.95;7.68;;;;;26.10;95918.00;;;;8292118;28;20222;-67
2023/07/02 09:08:07;;;;;;;15.70;7.05;;;;;26.60;95914.00;;;;8313304;28;20225;-67
2023/07/02 09:12:10;;;;;;;14.82;7.65;;;;;26.90;95920.00;;;;8312276;28;20917;-69
2023/07/02 09:16:24;;;;;;;16.92;7.82;;;;;26.40;95931.00;;;;8309856;28;20202;-71
2023/07/02 09:20:33;;;;;;;12.77;7.07;;;;;26.90;95925.00;;;;8308167;28;20566;-70
2023/07/02 09:24:40;;;;;;;17.05;7.88;;;;;26.30;95916.00;;;;8310021;28;20288;-69
2023/07/02 09:28:45;;;;;;;17.75;7.95;;;;;26.70;95912.00;;;;8312869;28;20257;-67
2023/07/02 09:32:50;;;;;;;20.70;7.78;;;;;26.20;95919.00;;;;8310754;28;20202;-66
2023/07/02 09:36:56;;;;;;;15.90;7.38;;;;;25.30;95916.00;;;;8311062;28;20235;-68
2023/07/02 09:41:00;;;;;;;15.68;8.25;;;;;25.30;95912.00;;;;8310533;28;20373;-68
2023/07/02 09:45:15;;;;;;;16.95;7.70;;;;;26.20;95927.00;;;;8310736;28;20288;-65
2023/07/02 09:49:25;;;;;;;19.00;7.60;;;;;25.60;95917.00;;;;8306383;28;20225;-69
2023/07/02 09:53:30;;;;;;;15.23;7.88;;;;;26.20;95921.00;;;;8302689;28;20206;-69
2023/07/02 09:57:33;;;;;;;16.02;8.00;;;;;26.60;95919.00;;;;8305003;28;20211;-67
2023/07/02 10:01:44;;;;;;;16.63;8.10;;;;;26.50;95916.00;;;;8313139;28;20245;-65
2023/07/02 10:06:04;;;;;;;12.43;7.25;;;;;25.70;95911.00;;;;8321489;28;20228;-67
2023/07/02 10:10:08;;;;;;;17.88;8.02;;;;;25.30;95901.00;;;;8317604;28;20225;-65
2023/07/02 10:14:15;;;;;;;11.73;7.53;;;;;26.90;95919.00;;;;8317527;28;20284;-67
2023/07/02 10:18:34;;;;;;;20.02;8.95;;;;;28.30;95912.00;;;;8313707;28;20224;-66
2023/07/02 10:22:48;;;;;;;14.98;8.15;;;;;29.10;95908.00;;;;8284668;28;20666;-67
2023/07/02 10:26:56;;;;;;;13.35;7.72;;;;;29.60;95912.00;;;;8321699;28;20280;-67
2023/07/02 10:31:00;;;;;;;15.23;7.75;;;;;29.80;95922.00;;;;8313099;28;20210;-66
2023/07/02 10:35:04;;;;;;;16.67;8.30;;;;;30.10;95923.00;;;;8298106;28;20198;-68
2023/07/02 10:39:10;;;;;;;13.75;7.35;;;;;29.30;95920.00;;;;8307843;28;20209;-67
2023/07/02 10:43:16;;;;;;;16.58;8.10;;;;;29.20;95934.00;;;;8302492;28;20285;-66
2023/07/02 10:47:22;;;;;;;15.75;8.43;;;;;29.40;95916.00;;;;8304505;28;20245;-66
2023/07/02 10:51:29;;;;;;;15.82;8.73;;;;;28.80;95932.00;;;;8304400;28;20228;-67
2023/07/02 10:55:35;;;;;;;16.42;8.70;;;;;28.00;95928.00;;;;8298160;28;20556;-66
2023/07/02 10:59:38;;;;;;;15.02;8.13;;;;;27.60;95947.00;;;;8295855;28;20567;-67
2023/07/02 11:03:42;;;;;;;14.48;7.95;;;;;27.80;95927.00;;;;8319364;28;20638;-67
2023/07/02 11:07:54;;;;;;;18.67;8.63;;;;;28.00;95920.00;;;;8317834;28;20690;-70
2023/07/02 11:12:02;;;;;;;13.48;7.72;;;;;28.50;95926.00;;;;8308081;28;20651;-68
2023/07/02 11:16:05;;;;;;;16.15;8.80;;;;;27.90;95925.00;;;;8313551;28;20220;-66
2023/07/02 11:20:10;;;;;;;20.38;8.43;;;;;27.50;95929.00;;;;8311672;28;20205;-67
2023/07/02 11:24:16;;;;;;;21.27;8.82;;;;;27.30;95928.00;;;;8316413;28;20208;-66
2023/07/02 11:28:24;;;;;;;16.33;8.82;;;;;26.50;95933.00;;;;8306841;28;20215;-67
2023/07/02 11:32:27;;;;;;;18.35;9.05;;;;;28.10;95935.00;;;;8298961;28;20205;-67
2023/07/02 11:36:31;;;;;;;16.77;8.45;;;;;28.50;95928.00;;;;8316630;28;20228;-65
2023/07/02 11:40:34;;;;;;;16.92;9.70;;;;;28.30;95927.00;;;;8314075;28;20263;-68
2023/07/02 11:44:39;;;;;;;15.50;9.23;;;;;28.40;95927.00;;;;8311671;28;20681;-68
2023/07/02 11:48:44;;;;;;;17.52;9.35;;;;;27.70;95934.00;;;;8289008;28;20895;-67
2023/07/02 11:52:53;;;;;;;18.67;8.23;;;;;27.70;95924.00;;;;8312386;28;20201;-65
2023/07/02 11:56:56;;;;;;;20.50;9.20;;;;;28.60;95930.00;;;;8318579;28;20528;-66
2023/07/02 12:01:00;;;;;;;19.95;8.43;;;;;29.10;95925.00;;;;8317108;28;20289;-64
2023/07/02 12:05:04;;;;;;;16.23;9.20;;;;;29.90;95937.00;;;;8317827;28;20308;-65
2023/07/02 12:09:10;;;;;;;18.73;8.73;;;;;30.70;95918.00;;;;8314419;28;20309;-65
2023/07/02 12:13:14;;;;;;;15.10;8.65;;;;;31.50;95923.00;;;;8317360;28;20220;-66
2023/07/02 12:17:21;;;;;;;15.30;8.70;;;;;31.80;95923.00;;;;8315291;28;20229;-65
2023/07/02 12:21:25;;;;;;;21.40;8.70;;;;;32.20;95929.00;;;;8318879;28;20312;-65
2023/07/02 12:25:28;;;;;;;16.58;9.27;;;;;32.30;95926.00;;;;8320192;28;20205;-71
2023/07/02 12:29:31;;;;;;;16.73;9.82;;;;;32.50;95923.00;;;;8316653;28;20780;-67
2023/07/02 12:33:36;;;;;;;18.25;8.82;;;;;32.80;95930.00;;;;8309893;28;20304;-66
2023/07/02 12:37:50;;;;;;;17.38;9.15;;;;;32.50;95926.00;;;;8314236;28;20280;-67
2023/07/02 12:41:56;;;;;;;13.13;8.30;;;;;32.50;95904.00;;;;8315562;28;20210;-66
2023/07/02 12:46:02;;;;;;;15.68;8.07;;;;;32.10;95916.00;;;;8319503;28;20278;-66
2023/07/02 12:50:08;;;;;;;16.25;8.77;;;;;30.90;95915.00;;;;8318614;28;20263;-68
2023/07/02 12:54:14;;;;;;;15.48;8.05;;;;;31.00;95885.00;;;;8317454;28;20284;-70
2023/07/02 12:58:22;;;;;;;15.25;8.75;;;;;30.70;95912.00;;;;8322045;28;20395;-66
2023/07/02 13:02:28;;;;;;;15.98;8.32;;;;;30.60;95915.00;;;;8317831;28;20259;-67
2023/07/02 13:06:34;;;;;;;14.65;8.38;;;;;30.40;95917.00;;;;8324709;28;20594;-66
2023/07/02 13:10:44;;;;;;;14.65;7.93;;;;;30.00;95924.00;;;;8318218;28;20293;-67
2023/07/02 13:14:49;;;;;;;14.13;7.78;;;;;29.90;95922.00;;;;8315037;28;20655;-66
2023/07/02 13:18:55;;;;;;;15.23;8.68;;;;;30.10;95921.00;;;;8315806;28;20211;-66
2023/07/02 13:23:03;;;;;;;16.85;8.95;;;;;30.20;95916.00;;;;8309677;28;20280;-67
2023/07/02 13:27:15;;;;;;;16.67;8.32;;;;;30.00;95918.00;;;;8314970;28;20284;-68
2023/07/02 13:31:19;;;;;;;12.70;7.28;;;;;29.70;95924.00;;;;8316796;28;20225;-67
2023/07/02 13:35:23;;;;;;;15.73;8.35;;;;;29.40;95921.00;;;;8322123;28;20202;-68
2023/07/02 13:39:42;;;;;;;18.75;8.85;;;;;29.80;95911.00;;;;8321400;28;20213;-69
2023/07/02 13:43:45;;;;;;;11.35;7.35;;;;;30.40;95912.00;;;;8317657;28;20205;-66
2023/07/02 13:47:53;;;;;;;13.35;7.80;;;;;30.80;95910.00;;;;8317831;28;20232;-66
2023/07/02 13:52:00;;;;;;;18.45;8.80;;;;;30.90;95909.00;;;;8321962;28;20198;-67
2023/07/02 13:56:06;;;;;;;13.02;8.05;;;;;31.20;95913.00;;;;8322568;28;20197;-65
2023/07/02 14:00:13;;;;;;;17.77;8.60;;;;;31.30;95931.00;;;;8320695;28;20312;-66
2023/07/02 14:04:18;;;;;;;15.73;8.40;;;;;30.90;95927.00;;;;8320832;28;20245;-66
2023/07/02 14:08:22;;;;;;;19.48;9.38;;;;;31.10;95923.00;;;;8320844;28;20268;-65
2023/07/02 14:12:28;;;;;;;15.88;8.95;;;;;30.90;95930.00;;;;8321184;28;20293;-68
2023/07/02 14:16:35;;;;;;;16.55;8.85;;;;;29.90;95929.00;;;;8326738;28;21089;-70
2023/07/02 14:20:40;;;;;;;21.25;9.40;;;;;29.60;95927.00;;;;8321473;28;20271;-68
2023/07/02 14:24:45;;;;;;;16.75;8.50;;;;;30.30;95919.00;;;;8331606;28;20262;-66
2023/07/02 14:28:48;;;;;;;14.50;8.65;;;;;30.10;95922.00;;;;8327745;28;20308;-69
2023/07/02 14:32:54;;;;;;;17.45;10.10;;;;;30.00;95916.00;;;;8307420;28;20201;-68
2023/07/02 14:37:00;;;;;;;17.48;10.15;;;;;30.70;95918.00;;;;8321478;28;20194;-66
2023/07/02 14:41:05;;;;;;;17.70;9.10;;;;;30.90;95914.00;;;;8318522;28;20205;-67
2023/07/02 14:45:11;;;;;;;18.15;9.80;;;;;31.10;95920.00;;;;8320924;28;20224;-69
2023/07/02 14:49:20;;;;;;;17.40;9.85;;;;;31.20;95917.00;;;;8319518;28;20239;-68
2023/07/02 14:53:25;;;;;;;16.85;10.07;;;;;31.10;95920.00;;;;8319755;28;20208;-69
2023/07/02 14:57:31;;;;;;;17.40;9.82;;;;;31.10;95917.00;;;;8313842;28;20247;-65
2023/07/02 15:01:36;;;;;;;18.88;9.82;;;;;31.50;95920.00;;;;8313776;28;20221;-69
2023/07/02 15:05:43;;;;;;;22.08;10.15;;;;;31.70;95918.00;;;;8319632;28;20206;-64
2023/07/02 15:09:46;;;;;;;21.55;10.05;;;;;31.40;95926.00;;;;8311479;28;20275;-68
2023/07/02 15:13:49;;;;;;;21.73;13.23;;;;;31.30;95907.00;;;;8315851;28;20209;-64
2023/07/02 15:17:52;;;;;;;25.65;13.05;;;;;31.30;95912.00;;;;8313576;28;20190;-64
2023/07/02 15:21:58;;;;;;;21.55;11.75;;;;;30.90;95908.00;;;;8306276;28;20202;-66
2023/07/02 15:26:06;;;;;;;16.88;10.05;;;;;30.70;95928.00;;;;8320863;28;20194;-65
2023/07/02 15:30:13;;;;;;;20.90;11.07;;;;;30.70;95916.00;;;;8321833;28;20228;-66
2023/07/02 15:34:18;;;;;;;17.52;9.88;;;;;30.30;95927.00;;;;8324738;28;20212;-69
2023/07/02 15:38:25;;;;;;;18.50;10.80;;;;;29.80;95925.00;;;;8319633;28;20197;-64
2023/07/02 15:42:31;;;;;;;19.70;11.00;;;;;29.70;95918.00;;;;8337471;28;20647;-68
2023/07/02 15:46:35;;;;;;;19.45;10.65;;;;;29.20;95922.00;;;;8303305;28;20205;-65
2023/07/02 15:50:40;;;;;;;20.80;10.73;;;;;29.20;95921.00;;;;8314281;28;20985;-70
2023/07/02 15:54:45;;;;;;;16.48;10.70;;;;;29.50;95922.00;;;;8313316;28;20400;-65
2023/07/02 15:58:48;;;;;;;21.90;11.02;;;;;29.50;95918.00;;;;8314109;28;20202;-66
2023/07/02 16:02:52;;;;;;;20.35;10.85;;;;;30.10;95918.00;;;;8313610;28;20598;-64
2023/07/02 16:06:57;;;;;;;17.48;9.32;;;;;30.30;95909.00;;;;8315151;28;20725;-66
2023/07/02 16:11:05;;;;;;;21.13;10.60;;;;;30.00;95930.00;;;;8315290;28;20329;-66
2023/07/02 16:15:14;;;;;;;18.88;11.23;;;;;29.20;95924.00;;;;8314288;28;20220;-68
2023/07/02 16:19:18;;;;;;;20.85;11.45;;;;;28.80;95918.00;;;;8314569;28;20276;-63
2023/07/02 16:23:25;;;;;;;15.85;10.10;;;;;29.20;95927.00;;;;8296614;28;20205;-64
2023/07/02 16:27:35;;;;;;;18.67;10.07;;;;;29.00;95916.00;;;;8317908;28;20202;-65
2023/07/02 16:31:41;;;;;;;19.05;10.63;;;;;28.90;95918.00;;;;8311444;28;20257;-64
2023/07/02 16:35:50;;;;;;;21.15;11.07;;;;;29.30;95909.00;;;;8313568;28;20205;-66
2023/07/02 16:39:58;;;;;;;18.13;10.70;;;;;29.70;95916.00;;;;8308039;28;20197;-65
2023/07/02 16:44:06;;;;;;;18.48;10.23;;;;;29.80;95912.00;;;;8303415;28;20333;-66
2023/07/02 16:48:12;;;;;;;22.00;10.98;;;;;29.70;95915.00;;;;8308260;28;20224;-67
2023/07/02 16:52:15;;;;;;;20.15;10.40;;;;;29.80;95911.00;;;;8313861;28;20336;-65
2023/07/02 16:56:22;;;;;;;19.70;11.40;;;;;30.00;95918.00;;;;8317453;28;20942;-63
2023/07/02 17:00:29;;;;;;;18.75;10.82;;;;;29.90;95918.00;;;;8310580;28;20949;-63
2023/07/02 17:04:33;;;;;;;21.58;11.02;;;;;30.10;95918.00;;;;8313622;28;20249;-63
2023/07/02 17:08:39;;;;;;;22.50;11.80;;;;;30.20;95917.00;;;;8318171;28;20594;-64
2023/07/02 17:12:45;;;;;;;23.08;10.48;;;;;30.00;95923.00;;;;8321811;28;20284;-64
2023/07/02 17:16:57;;;;;;;21.30;10.13;;;;;30.00;95920.00;;;;8311889;28;20293;-66
2023/07/02 17:21:02;;;;;;;23.08;10.88;;;;;29.90;95939.00;;;;8319513;28;20201;-63
2023/07/02 17:25:07;;;;;;;19.70;10.68;;;;;29.90;95932.00;;;;8322321;28;20313;-63
2023/07/02 17:29:10;;;;;;;16.00;10.32;;;;;29.90;95926.00;;;;8319556;28;20297;-63
2023/07/02 17:33:16;;;;;;;20.33;11.48;;;;;30.10;95931.00;;;;8320227;28;20295;-61
2023/07/02 17:37:24;;;;;;;18.85;10.43;;;;;30.10;95926.00;;;;8318289;28;20197;-68
2023/07/02 17:41:34;;;;;;;19.95;11.38;;;;;30.40;95931.00;;;;8305556;28;20234;-63
2023/07/02 17:45:37;;;;;;;22.05;10.40;;;;;30.80;95928.00;;;;8316416;28;20202;-64
2023/07/02 17:49:45;;;;;;;20.00;11.10;;;;;30.70;95932.00;;;;8313501;28;20210;-63
2023/07/02 17:53:48;;;;;;;21.73;11.32;;;;;30.60;95943.00;;;;8309110;28;20209;-66
2023/07/02 17:57:51;;;;;;;16.52;10.43;;;;;30.30;95944.00;;;;8297081;28;20275;-62
2023/07/02 18:01:57;;;;;;;23.80;11.48;;;;;29.50;95935.00;;;;8317238;28;20320;-63
2023/07/02 18:06:01;;;;;;;21.13;11.10;;;;;28.50;95934.00;;;;8323922;28;20201;-65
2023/07/02 18:10:07;;;;;;;21.05;11.27;;;;;27.80;95941.00;;;;8317540;28;20825;-66
2023/07/02 18:14:10;;;;;;;20.95;10.73;;;;;27.10;95941.00;;;;8311975;28;20233;-65
2023/07/02 18:18:15;;;;;;;21.83;11.35;;;;;26.50;95949.00;;;;8310923;28;20197;-65
2023/07/02 18:22:21;;;;;;;24.73;10.95;;;;;26.00;95939.00;;;;8318264;28;20189;-65
2023/07/02 18:26:25;;;;;;;21.63;11.95;;;;;25.50;95939.00;;;;8309017;28;20206;-63
2023/07/02 18:30:28;;;;;;;21.27;11.38;;;;;25.20;95933.00;;;;8290232;28;20225;-69
2023/07/02 18:34:33;;;;;;;22.10;12.05;;;;;24.90;95936.00;;;;8316256;28;20201;-64
2023/07/02 18:38:37;;;;;;;25.17;12.32;;;;;24.60;95940.00;;;;8312238;28;20236;-62
2023/07/02 18:42:41;;;;;;;22.98;11.40;;;;;24.50;95938.00;;;;8293156;28;20199;-65
2023/07/02 18:46:44;;;;;;;28.95;11.85;;;;;24.30;95938.00;;;;8305761;28;20213;-65
2023/07/02 18:50:52;;;;;;;22.45;11.05;;;;;24.00;95940.00;;;;8314264;28;20229;-65
2023/07/02 18:54:56;;;;;;;22.75;11.43;;;;;23.80;95943.00;;;;8315229;28;20200;-63
2023/07/02 18:59:01;;;;;;;25.52;12.10;;;;;23.60;95952.00;;;;8307266;28;20202;-64
2023/07/02 19:03:08;;;;;;;22.27;12.20;;;;;23.30;95947.00;;;;8311389;28;20232;-68
2023/07/02 19:07:15;;;;;;;22.98;11.48;;;;;23.00;95949.00;;;;8315528;28;20251;-67
2023/07/02 19:11:20;;;;;;;26.15;11.88;;;;;22.70;95953.00;;;;8319147;28;20797;-67
2023/07/02 19:15:29;;;;;;;25.02;11.93;;;;;22.40;95953.00;;;;8317931;28;20596;-64
2023/07/02 19:19:33;;;;;;;21.38;11.70;;;;;21.90;95958.00;;;;8317627;28;20237;-65
2023/07/02 19:23:36;;;;;;;25.20;12.30;;;;;21.40;95961.00;;;;8315686;28;20285;-66
2023/07/02 19:27:41;;;;;;;24.25;11.93;;;;;20.80;95962.00;;;;8305450;28;20198;-67
2023/07/02 19:31:48;;;;;;;23.48;12.73;;;;;20.30;95961.00;;;;8307607;28;20264;-67
2023/07/02 19:35:51;;;;;;;23.13;12.27;;;;;19.80;95963.00;;;;8303607;28;20197;-66
2023/07/02 19:39:57;;;;;;;30.42;13.35;;;;;19.40;95972.00;;;;8306346;28;20213;-66
2023/07/02 19:44:02;;;;;;;23.88;12.55;;;;;19.00;95965.00;;;;8303392;28;20690;-66
2023/07/02 19:48:09;;;;;;;24.20;12.25;;;;;18.60;95977.00;;;;8313255;28;20316;-65
2023/07/02 19:52:20;;;;;;;26.15;11.77;;;;;18.20;95976.00;;;;8306469;28;20943;-65
2023/07/02 19:56:26;;;;;;;27.23;11.98;;;;;18.00;95984.00;;;;8312191;28;20202;-63
2023/07/02 20:00:33;;;;;;;29.30;11.93;;;;;17.70;95986.00;;;;8302648;28;20263;-65
2023/07/02 20:04:36;;;;;;;27.48;13.10;;;;;17.50;95989.00;;;;8310025;28;20221;-64
2023/07/02 20:08:40;;;;;;;28.15;12.18;;;;;17.30;95996.00;;;;8318494;28;20625;-65
2023/07/02 20:12:45;;;;;;;28.85;12.88;;;;;17.20;95994.00;;;;8319492;28;20269;-67
2023/07/02 20:16:50;;;;;;;26.52;12.35;;;;;17.10;95991.00;;;;8312777;28;20277;-72